createdAt,value
2023-04-05T00:01:08.009Z,100920.48
2023-04-05T00:03:35.998Z,100920.36
2023-04-05T00:06:05.503Z,100919.38
2023-04-05T00:08:33.399Z,100917.60
2023-04-05T00:11:01.210Z,100916.32
2023-04-05T00:13:29.439Z,100913.66
2023-04-05T00:15:58.476Z,100912.54
2023-04-05T00:18:26.310Z,100911.77
2023-04-05T00:20:54.312Z,100912.59
2023-04-05T00:23:22.964Z,100910.50
2023-04-05T00:25:50.849Z,100908.95
2023-04-05T00:28:18.589Z,100904.69
2023-04-05T00:30:46.918Z,100900.80
2023-04-05T00:33:14.919Z,100900.98
2023-04-05T00:35:42.978Z,100900.52
2023-04-05T00:38:10.798Z,100897.61
2023-04-05T00:40:41.191Z,100896.48
2023-04-05T00:43:09.162Z,100892.06
2023-04-05T00:45:36.947Z,100887.81
2023-04-05T00:48:05.708Z,100889.01
2023-04-05T00:50:33.735Z,100886.48
2023-04-05T00:53:01.629Z,100883.66
2023-04-05T00:55:29.579Z,100877.70
2023-04-05T00:57:58.071Z,100878.95
2023-04-05T01:00:26.118Z,100877.27
2023-04-05T01:02:58.308Z,100875.09
2023-04-05T01:05:40.866Z,100872.10
2023-04-05T01:08:32.557Z,100872.02
2023-04-05T01:11:05.678Z,100872.70
2023-04-05T01:13:33.704Z,100867.73
2023-04-05T01:16:01.590Z,100868.27
2023-04-05T01:18:30.822Z,100865.73
2023-04-05T01:21:20.974Z,100861.45
2023-04-05T01:24:15.021Z,100867.66
2023-04-05T01:26:53.709Z,100867.52
2023-04-05T01:29:39.671Z,100867.74
2023-04-05T01:32:44.918Z,100864.17
2023-04-05T01:35:23.522Z,100865.70
2023-04-05T01:37:59.666Z,100866.02
2023-04-05T01:40:28.577Z,100871.30
2023-04-05T01:42:56.421Z,100871.77
2023-04-05T01:45:24.314Z,100870.91
2023-04-05T01:47:52.214Z,100872.98
2023-04-05T01:50:21.626Z,100874.86
2023-04-05T01:52:49.368Z,100877.83
2023-04-05T01:55:17.583Z,100873.41
2023-04-05T01:57:45.504Z,100875.13
2023-04-05T02:00:14.555Z,100873.20
2023-04-05T02:02:42.474Z,100871.66
2023-04-05T02:05:10.431Z,100870.01
2023-04-05T02:07:38.192Z,100872.63
2023-04-05T02:10:06.540Z,100874.70
2023-04-05T02:12:34.355Z,100873.35
2023-04-05T02:15:02.491Z,100869.06
2023-04-05T02:17:34.033Z,100866.05
2023-04-05T02:20:02.670Z,100863.21
2023-04-05T02:22:30.528Z,100867.70
2023-04-05T02:24:58.426Z,100867.29
2023-04-05T02:27:26.288Z,100872.64
2023-04-05T02:29:55.846Z,100871.52
2023-04-05T02:32:25.134Z,100868.65
2023-04-05T02:34:52.984Z,100869.34
2023-04-05T02:37:20.814Z,100867.80
2023-04-05T02:39:48.683Z,100867.38
2023-04-05T02:42:16.618Z,100860.55
2023-04-05T02:44:44.469Z,100861.75
2023-04-05T02:47:12.238Z,100860.40
2023-04-05T02:49:40.938Z,100864.05
2023-04-05T02:52:08.681Z,100866.65
2023-04-05T02:54:36.716Z,100869.09
2023-04-05T02:57:04.461Z,100867.64
2023-04-05T02:59:32.771Z,100868.70
2023-04-05T03:02:01.051Z,100869.73
2023-04-05T03:04:28.853Z,100866.48
2023-04-05T03:06:57.198Z,100862.91
2023-04-05T03:09:27.320Z,100862.08
2023-04-05T03:11:55.022Z,100867.27
2023-04-05T03:14:22.863Z,100870.39
2023-04-05T03:16:50.731Z,100873.50
2023-04-05T03:19:22.857Z,100874.71
2023-04-05T03:21:50.604Z,100876.42
2023-04-05T03:24:18.515Z,100875.33
2023-04-05T03:26:47.701Z,100872.42
2023-04-05T03:29:16.668Z,100870.92
2023-04-05T03:31:45.558Z,100868.36
2023-04-05T03:34:13.446Z,100869.21
2023-04-05T03:36:44.193Z,100863.10
2023-04-05T03:39:13.415Z,100863.34
2023-04-05T03:41:41.513Z,100862.55
2023-04-05T03:44:10.816Z,100862.23
2023-04-05T03:46:38.827Z,100861.94
2023-04-05T03:49:07.558Z,100863.70
2023-04-05T03:51:35.456Z,100863.75
2023-04-05T03:54:04.334Z,100859.52
2023-04-05T03:56:32.964Z,100862.32
2023-04-05T03:59:01.008Z,100862.36
2023-04-05T04:01:29.537Z,100862.70
2023-04-05T04:03:57.390Z,100862.06
2023-04-05T04:06:27.228Z,100863.69
2023-04-05T04:08:55.171Z,100866.27
2023-04-05T04:11:22.918Z,100866.94
2023-04-05T04:13:50.831Z,100867.13
2023-04-05T04:16:18.643Z,100866.10
2023-04-05T04:18:46.501Z,100866.54
2023-04-05T04:21:17.286Z,100868.86
2023-04-05T04:23:46.219Z,100871.70
2023-04-05T04:26:14.364Z,100875.81
2023-04-05T04:28:43.993Z,100877.15
2023-04-05T04:31:13.568Z,100878.44
2023-04-05T04:33:43.834Z,100874.30
2023-04-05T04:36:13.786Z,100877.67
2023-04-05T04:38:43.116Z,100872.05
2023-04-05T04:41:12.710Z,100874.06
2023-04-05T04:43:43.900Z,100873.58
2023-04-05T04:46:15.288Z,100876.30
2023-04-05T04:48:43.415Z,100878.38
2023-04-05T04:51:11.254Z,100871.20
2023-04-05T04:53:39.551Z,100869.15
2023-04-05T04:56:08.089Z,100864.86
2023-04-05T04:58:36.193Z,100874.05
2023-04-05T05:01:10.736Z,100875.84
2023-04-05T05:03:40.340Z,100874.54
2023-04-05T05:06:08.576Z,100877.00
2023-04-05T05:08:37.479Z,100881.42
2023-04-05T05:11:07.338Z,100881.36
2023-04-05T05:13:35.615Z,100882.27
2023-04-05T05:16:04.593Z,100882.91
2023-04-05T05:18:32.450Z,100881.19
2023-04-05T05:21:00.195Z,100882.86
2023-04-05T05:23:28.004Z,100883.98
2023-04-05T05:25:59.679Z,100890.31
2023-04-05T05:28:27.924Z,100889.40
2023-04-05T05:30:55.842Z,100893.58
2023-04-05T05:33:24.380Z,100897.38
2023-04-05T05:35:52.805Z,100897.08
2023-04-05T05:38:20.774Z,100898.65
2023-04-05T05:40:48.598Z,100899.77
2023-04-05T05:43:16.296Z,100898.58
2023-04-05T05:45:44.120Z,100897.20
2023-04-05T05:48:12.233Z,100900.52
2023-04-05T05:50:40.670Z,100899.83
2023-04-05T05:53:08.734Z,100901.14
2023-04-05T05:55:37.049Z,100905.05
2023-04-05T05:58:05.140Z,100907.89
2023-04-05T06:00:33.441Z,100903.44
2023-04-05T06:03:01.659Z,100901.57
2023-04-05T06:05:29.671Z,100902.27
2023-04-05T06:07:57.612Z,100904.77
2023-04-05T06:10:25.741Z,100907.46
2023-04-05T06:12:53.543Z,100907.76
2023-04-05T06:15:23.859Z,100908.86
2023-04-05T06:17:51.578Z,100914.73
2023-04-05T06:20:19.350Z,100916.31
2023-04-05T06:22:47.036Z,100916.13
2023-04-05T06:25:15.913Z,100916.60
2023-04-05T06:27:45.752Z,100916.46
2023-04-05T06:30:14.019Z,100918.33
2023-04-05T06:32:42.015Z,100915.08
2023-04-05T06:35:10.275Z,100916.20
2023-04-05T06:37:42.168Z,100919.40
2023-04-05T06:40:10.288Z,100920.48
2023-04-05T06:42:38.119Z,100922.00
2023-04-05T06:45:06.633Z,100924.34
2023-04-05T06:47:38.883Z,100924.14
2023-04-05T06:50:08.760Z,100925.23
2023-04-05T06:52:39.357Z,100928.57
2023-04-05T06:55:08.255Z,100931.97
2023-04-05T06:57:36.220Z,100929.97
2023-04-05T07:00:10.009Z,100930.94
2023-04-05T07:02:39.100Z,100926.73
2023-04-05T07:05:07.263Z,100931.36
2023-04-05T07:07:39.911Z,100932.44
2023-04-05T07:10:08.656Z,100933.23
2023-04-05T07:12:37.306Z,100937.48
2023-04-05T07:15:05.743Z,100942.29
2023-04-05T07:17:33.628Z,100939.48
2023-04-05T07:20:01.431Z,100938.65
2023-04-05T07:22:29.148Z,100943.41
2023-04-05T07:24:56.965Z,100942.87
2023-04-05T07:27:24.777Z,100940.38
2023-04-05T07:29:52.606Z,100941.73
2023-04-05T07:32:20.501Z,100938.08
2023-04-05T07:34:48.198Z,100942.45
2023-04-05T07:37:16.260Z,100943.05
2023-04-05T07:39:44.333Z,100943.49
2023-04-05T07:42:12.108Z,100945.91
2023-04-05T07:44:39.823Z,100942.34
2023-04-05T07:47:07.668Z,100942.52
2023-04-05T07:49:38.037Z,100943.04
2023-04-05T07:52:06.643Z,100948.06
2023-04-05T07:54:34.778Z,100946.91
2023-04-05T07:57:02.762Z,100946.05
2023-04-05T07:59:30.842Z,100947.70
2023-04-05T08:02:04.952Z,100945.20
2023-04-05T08:04:40.637Z,100946.98
2023-04-05T08:07:08.786Z,100944.58
2023-04-05T08:09:36.934Z,100945.51
2023-04-05T08:12:04.965Z,100949.10
2023-04-05T08:14:32.730Z,100946.71
2023-04-05T08:17:00.797Z,100947.08
2023-04-05T08:19:28.991Z,100951.42
2023-04-05T08:21:57.148Z,100950.77
2023-04-05T08:24:24.924Z,100950.68
2023-04-05T08:26:53.023Z,100952.07
2023-04-05T08:29:20.944Z,100948.91
2023-04-05T08:31:48.757Z,100949.68
2023-04-05T08:34:16.975Z,100953.48
2023-04-05T08:36:46.070Z,100950.23
2023-04-05T08:39:15.866Z,100954.29
2023-04-05T08:41:54.317Z,100954.27
2023-04-05T08:44:25.868Z,100953.90
2023-04-05T08:46:58.305Z,100955.55
2023-04-05T08:49:26.599Z,100955.63
2023-04-05T08:51:55.880Z,100952.73
2023-04-05T08:54:23.925Z,100953.94
2023-04-05T08:56:54.756Z,100954.73
2023-04-05T08:59:23.478Z,100955.38
2023-04-05T09:01:52.785Z,100956.02
2023-04-05T09:04:28.250Z,100956.70
2023-04-05T09:06:59.308Z,100957.83
2023-04-05T09:09:35.083Z,100958.31
2023-04-05T09:12:07.640Z,100957.48
2023-04-05T09:14:38.056Z,100955.76
2023-04-05T09:17:06.599Z,100953.96
2023-04-05T09:19:34.361Z,100952.27
2023-04-05T09:22:06.994Z,100958.05
2023-04-05T09:24:39.800Z,100958.90
2023-04-05T09:27:18.724Z,100959.26
2023-04-05T09:29:48.514Z,100955.51
2023-04-05T09:32:19.220Z,100954.35
2023-04-05T09:34:48.032Z,100955.40
2023-04-05T09:37:20.334Z,100956.36
2023-04-05T09:39:52.057Z,100958.95
2023-04-05T09:42:23.441Z,100960.27
2023-04-05T09:45:05.206Z,100957.64
2023-04-05T09:47:36.654Z,100958.19
2023-04-05T09:50:18.756Z,100957.71
2023-04-05T09:52:47.236Z,100959.48
2023-04-05T09:55:26.852Z,100956.29
2023-04-05T09:57:56.816Z,100958.80
2023-04-05T10:00:24.700Z,100959.84
2023-04-05T10:02:54.255Z,100955.58
2023-04-05T10:05:28.376Z,100955.07
2023-04-05T10:07:56.942Z,100954.98
2023-04-05T10:10:25.770Z,100954.16
2023-04-05T10:12:54.347Z,100954.86
2023-04-05T10:15:25.758Z,100956.65
2023-04-05T10:18:03.726Z,100958.25
2023-04-05T10:20:39.365Z,100956.73
2023-04-05T10:23:12.403Z,100953.08
2023-04-05T10:25:53.228Z,100954.05
2023-04-05T10:28:32.872Z,100951.59
2023-04-05T10:31:36.462Z,100948.66
2023-04-05T10:34:14.374Z,100946.10
2023-04-05T10:36:59.602Z,100943.15
2023-04-05T10:39:45.381Z,100944.91
2023-04-05T10:42:28.212Z,100944.42
2023-04-05T10:45:05.018Z,100946.31
2023-04-05T10:47:42.810Z,100940.95
2023-04-05T10:50:20.289Z,100938.38
2023-04-05T10:52:48.567Z,100939.33
2023-04-05T10:55:16.800Z,100935.94
2023-04-05T10:57:46.342Z,100937.23
2023-04-05T11:00:15.917Z,100935.89
2023-04-05T11:02:43.788Z,100936.26
2023-04-05T11:05:33.142Z,100936.91
2023-04-05T11:08:05.740Z,100937.40
2023-04-05T11:10:38.163Z,100939.27
2023-04-05T11:13:10.499Z,100938.08
2023-04-05T11:15:38.990Z,100937.69
2023-04-05T11:18:08.565Z,100934.09
2023-04-05T11:20:56.120Z,100937.58
2023-04-05T11:23:25.732Z,100937.00
2023-04-05T11:26:03.851Z,100936.66
2023-04-05T11:28:37.824Z,100935.60
2023-04-05T11:31:18.579Z,100934.13
2023-04-05T11:33:55.399Z,100934.34
2023-04-05T11:36:33.861Z,100935.84
2023-04-05T11:39:23.004Z,100937.45
2023-04-05T11:42:04.957Z,100937.79
2023-04-05T11:44:48.030Z,100938.02
2023-04-05T11:47:23.163Z,100938.33
2023-04-05T11:49:51.301Z,100941.76
2023-04-05T11:52:21.518Z,100941.52
2023-04-05T11:54:50.350Z,100939.94
2023-04-05T11:57:23.349Z,100941.10
2023-04-05T11:59:52.477Z,100943.73
2023-04-05T12:02:21.721Z,100942.82
2023-04-05T12:04:57.613Z,100941.73
2023-04-05T12:07:36.822Z,100939.77
2023-04-05T12:10:08.814Z,100939.59
2023-04-05T12:12:42.270Z,100936.90
2023-04-05T12:15:14.686Z,100938.74
2023-04-05T12:17:45.592Z,100938.64
2023-04-05T12:20:15.737Z,100936.04
2023-04-05T12:22:45.015Z,100939.36
2023-04-05T12:25:13.661Z,100933.33
2023-04-05T12:27:41.621Z,100935.66
2023-04-05T12:30:14.689Z,100934.57
2023-04-05T12:33:11.732Z,100932.52
2023-04-05T12:35:39.832Z,100932.35
2023-04-05T12:38:09.200Z,100929.33
2023-04-05T12:40:40.725Z,100928.33
2023-04-05T12:43:09.458Z,100929.79
2023-04-05T12:45:41.017Z,100928.44
2023-04-05T12:48:12.173Z,100923.48
2023-04-05T12:50:48.635Z,100924.27
2023-04-05T12:53:20.475Z,100926.98
2023-04-05T12:55:53.536Z,100926.63
2023-04-05T12:58:23.829Z,100923.34
2023-04-05T13:00:51.795Z,100924.84
2023-04-05T13:03:21.483Z,100923.25
2023-04-05T13:05:49.828Z,100921.06
2023-04-05T13:08:20.934Z,100924.58
2023-04-05T13:10:49.912Z,100919.77
2023-04-05T13:13:18.487Z,100925.14
2023-04-05T13:15:46.592Z,100925.69
2023-04-05T13:18:15.201Z,100919.85
2023-04-05T13:20:43.849Z,100920.17
2023-04-05T13:23:12.949Z,100921.84
2023-04-05T13:25:42.461Z,100921.02
2023-04-05T13:28:10.630Z,100917.92
2023-04-05T13:30:38.655Z,100920.05
2023-04-05T13:33:06.662Z,100920.02
2023-04-05T13:35:34.634Z,100922.56
2023-04-05T13:38:04.621Z,100916.94
2023-04-05T13:40:33.275Z,100922.20
2023-04-05T13:43:01.690Z,100920.78
2023-04-05T13:45:29.661Z,100922.56
2023-04-05T13:47:57.585Z,100921.09
2023-04-05T13:50:25.742Z,100924.88
2023-04-05T13:52:53.961Z,100924.05
2023-04-05T13:55:21.735Z,100923.12
2023-04-05T13:57:49.601Z,100925.14
2023-04-05T14:00:17.744Z,100924.73
2023-04-05T14:02:46.014Z,100929.96
2023-04-05T14:05:15.575Z,100928.94
2023-04-05T14:07:43.316Z,100925.82
2023-04-05T14:10:11.754Z,100926.05
2023-04-05T14:12:39.689Z,100926.68
2023-04-05T14:15:07.925Z,100930.89
2023-04-05T14:17:35.909Z,100931.78
2023-04-05T14:20:03.990Z,100931.40
2023-04-05T14:22:31.941Z,100927.85
2023-04-05T14:24:59.674Z,100930.52
2023-04-05T14:27:28.612Z,100930.34
2023-04-05T14:29:57.274Z,100926.61
2023-04-05T14:32:27.871Z,100928.73
2023-04-05T14:34:56.248Z,100930.89
2023-04-05T14:37:24.052Z,100928.66
2023-04-05T14:39:51.854Z,100931.50
2023-04-05T14:42:21.458Z,100921.77
2023-04-05T14:44:49.404Z,100922.73
2023-04-05T14:47:17.466Z,100926.10
2023-04-05T14:49:45.332Z,100925.08
2023-04-05T14:52:13.228Z,100926.33
2023-04-05T14:54:41.334Z,100934.55
2023-04-05T14:57:11.712Z,100926.91
2023-04-05T14:59:39.510Z,100928.42
2023-04-05T15:02:07.883Z,100931.07
2023-04-05T15:04:36.078Z,100930.48
2023-04-05T15:07:03.853Z,100931.60
2023-04-05T15:09:31.977Z,100931.23
2023-04-05T15:12:02.297Z,100934.25
2023-04-05T15:14:32.307Z,100936.24
2023-04-05T15:17:00.461Z,100934.67
2023-04-05T15:19:29.956Z,100932.66
2023-04-05T15:21:57.813Z,100940.55
2023-04-05T15:24:25.904Z,100941.27
2023-04-05T15:27:02.306Z,100940.09
2023-04-05T15:29:31.390Z,100938.04
2023-04-05T15:32:00.577Z,100941.69
2023-04-05T15:34:47.336Z,100947.55
2023-04-05T15:37:15.497Z,100954.10
2023-04-05T15:39:43.484Z,100952.87
2023-04-05T15:42:11.286Z,100956.19
2023-04-05T15:44:39.084Z,100956.39
2023-04-05T15:47:07.013Z,100956.02
2023-04-05T15:49:34.792Z,100956.59
2023-04-05T15:52:02.677Z,100951.75
2023-04-05T15:54:30.697Z,100955.49
2023-04-05T15:56:58.591Z,100953.91
2023-04-05T15:59:26.578Z,100953.80
2023-04-05T16:01:54.701Z,100955.00
2023-04-05T16:04:23.326Z,100953.99
2023-04-05T16:06:51.266Z,100951.27
2023-04-05T16:09:19.542Z,100954.19
2023-04-05T16:11:47.542Z,100955.52
2023-04-05T16:14:15.689Z,100952.98
2023-04-05T16:16:52.780Z,100950.06
2023-04-05T16:19:26.593Z,100947.62
2023-04-05T16:21:54.676Z,100946.05
2023-04-05T16:24:22.797Z,100942.71
2023-04-05T16:26:50.646Z,100945.30
2023-04-05T16:29:18.714Z,100946.30
2023-04-05T16:31:47.503Z,100942.98
2023-04-05T16:34:16.256Z,100946.88
2023-04-05T16:36:44.263Z,100951.23
2023-04-05T16:39:12.207Z,100952.02
2023-04-05T16:41:40.313Z,100948.15
2023-04-05T16:44:09.608Z,100947.17
2023-04-05T16:46:37.827Z,100951.55
2023-04-05T16:49:07.091Z,100954.09
2023-04-05T16:51:36.717Z,100952.80
2023-04-05T16:54:05.081Z,100953.20
2023-04-05T16:56:33.306Z,100954.24
2023-04-05T16:59:02.257Z,100954.15
2023-04-05T17:01:31.687Z,100955.33
2023-04-05T17:04:00.223Z,100951.17
2023-04-05T17:06:28.195Z,100948.23
2023-04-05T17:08:56.086Z,100949.95
2023-04-05T17:11:24.971Z,100952.02
2023-04-05T17:13:53.099Z,100957.26
2023-04-05T17:16:21.675Z,100961.52
2023-04-05T17:18:49.593Z,100963.61
2023-04-05T17:21:19.449Z,100966.36
2023-04-05T17:23:47.586Z,100967.53
2023-04-05T17:26:15.763Z,100968.94
2023-04-05T17:28:43.596Z,100967.67
2023-04-05T17:31:11.530Z,100971.22
2023-04-05T17:33:40.829Z,100973.19
2023-04-05T17:36:09.555Z,100976.83
2023-04-05T17:38:37.835Z,100978.23
2023-04-05T17:41:05.970Z,100979.67
2023-04-05T17:43:33.822Z,100983.88
2023-04-05T17:46:03.203Z,100983.39
2023-04-05T17:48:32.919Z,100983.95
2023-04-05T17:51:06.558Z,100989.88
2023-04-05T17:53:34.871Z,100998.08
2023-04-05T17:56:02.883Z,100999.48
2023-04-05T17:58:32.323Z,101000.94
2023-04-05T18:01:00.852Z,101001.13
2023-04-05T18:03:29.535Z,101001.91
2023-04-05T18:05:57.591Z,101001.56
2023-04-05T18:08:26.504Z,101000.54
2023-04-05T18:10:57.329Z,101000.81
2023-04-05T18:13:26.602Z,101000.13
2023-04-05T18:15:56.344Z,101003.89
2023-04-05T18:18:27.544Z,101005.34
2023-04-05T18:20:56.502Z,101005.63
2023-04-05T18:23:27.307Z,101007.38
2023-04-05T18:25:55.543Z,101010.86
2023-04-05T18:28:23.920Z,101011.63
2023-04-05T18:30:53.199Z,101007.14
2023-04-05T18:33:22.752Z,101014.71
2023-04-05T18:35:52.413Z,101016.31
2023-04-05T18:38:22.102Z,101018.57
2023-04-05T18:40:52.585Z,101019.13
2023-04-05T18:43:25.243Z,101024.75
2023-04-05T18:45:57.182Z,101025.39
2023-04-05T18:48:25.579Z,101026.47
2023-04-05T18:50:54.701Z,101023.59
2023-04-05T18:53:26.852Z,101029.66
2023-04-05T18:55:55.539Z,101028.42
2023-04-05T18:58:23.813Z,101030.56
2023-04-05T19:00:52.029Z,101029.05
2023-04-05T19:03:20.773Z,101032.06
2023-04-05T19:05:53.194Z,101032.26
2023-04-05T19:08:21.247Z,101027.81
2023-04-05T19:10:49.050Z,101031.29
2023-04-05T19:13:17.395Z,101032.36
2023-04-05T19:15:46.135Z,101031.21
2023-04-05T19:18:16.817Z,101034.86
2023-04-05T19:20:45.645Z,101036.11
2023-04-05T19:23:13.445Z,101038.86
2023-04-05T19:25:41.716Z,101038.15
2023-04-05T19:28:10.049Z,101038.23
2023-04-05T19:30:41.307Z,101040.10
2023-04-05T19:33:10.504Z,101038.93
2023-04-05T19:35:38.305Z,101042.95
2023-04-05T19:38:06.313Z,101040.59
2023-04-05T19:40:34.340Z,101039.31
2023-04-05T19:43:02.344Z,101037.11
2023-04-05T19:45:32.869Z,101039.82
2023-04-05T19:48:02.593Z,101040.24
2023-04-05T19:50:47.949Z,101043.50
2023-04-05T19:53:42.548Z,101045.06
2023-04-05T19:56:13.173Z,101039.87
2023-04-05T19:58:42.434Z,101038.65
2023-04-05T20:01:10.575Z,101038.98
2023-04-05T20:03:40.050Z,101037.42
2023-04-05T20:06:09.030Z,101036.15
2023-04-05T20:08:42.434Z,101030.88
2023-04-05T20:11:17.657Z,101029.33
2023-04-05T20:13:54.439Z,101029.05
2023-04-05T20:16:27.948Z,101028.69
2023-04-05T20:19:08.843Z,101027.06
2023-04-05T20:21:37.933Z,101024.16
2023-04-05T20:24:12.422Z,101018.95
2023-04-05T20:26:40.638Z,101018.40
2023-04-05T20:29:09.702Z,101016.14
2023-04-05T20:31:40.110Z,101014.92
2023-04-05T20:34:12.740Z,101014.44
2023-04-05T20:36:52.338Z,101015.23
2023-04-05T20:39:20.182Z,101013.16
2023-04-05T20:41:48.107Z,101018.63
2023-04-05T20:44:15.971Z,101014.27
2023-04-05T20:46:43.960Z,101013.48
2023-04-05T20:49:12.192Z,101012.14
2023-04-05T20:51:42.699Z,101006.01
2023-04-05T20:54:11.807Z,101004.56
2023-04-05T20:56:41.074Z,101009.25
2023-04-05T20:59:09.087Z,101009.36
2023-04-05T21:01:38.238Z,101011.52
2023-04-05T21:04:06.491Z,101007.73
2023-04-05T21:06:36.605Z,101006.81
2023-04-05T21:09:04.993Z,101005.26
2023-04-05T21:11:32.890Z,101009.95
2023-04-05T21:14:00.997Z,101005.94
2023-04-05T21:16:28.962Z,101003.02
2023-04-05T21:18:56.810Z,101005.79
2023-04-05T21:21:25.030Z,101004.40
2023-04-05T21:23:52.820Z,101001.27
2023-04-05T21:26:21.383Z,101005.66
2023-04-05T21:28:49.316Z,101004.73
2023-04-05T21:31:17.238Z,101005.39
2023-04-05T21:33:45.055Z,101001.98
2023-04-05T21:36:13.560Z,100998.88
2023-04-05T21:38:41.467Z,100996.12
2023-04-05T21:41:09.242Z,100994.96
2023-04-05T21:43:38.045Z,100999.13
2023-04-05T21:46:05.782Z,100991.98
2023-04-05T21:48:33.971Z,100989.48
2023-04-05T21:51:01.711Z,100986.99
2023-04-05T21:53:29.602Z,100990.45
2023-04-05T21:55:57.411Z,100990.34
2023-04-05T21:58:26.453Z,100984.35
2023-04-05T22:00:54.334Z,100982.64
2023-04-05T22:03:22.150Z,100980.48
2023-04-05T22:05:49.936Z,100983.37
2023-04-05T22:08:17.706Z,100981.63
2023-04-05T22:10:45.660Z,100980.02
2023-04-05T22:13:13.507Z,100978.27
2023-04-05T22:15:41.424Z,100974.73
2023-04-05T22:18:09.386Z,100976.79
2023-04-05T22:20:37.139Z,100977.20
2023-04-05T22:23:05.181Z,100977.47
2023-04-05T22:25:32.901Z,100974.34
2023-04-05T22:28:00.905Z,100970.13
2023-04-05T22:30:37.170Z,100974.48
2023-04-05T22:33:15.060Z,100967.81
2023-04-05T22:35:43.131Z,100966.92
2023-04-05T22:38:11.373Z,100967.12
2023-04-05T22:40:39.262Z,100968.44
2023-04-05T22:43:07.112Z,100969.00
2023-04-05T22:45:34.998Z,100972.23
2023-04-05T22:48:03.061Z,100972.42
2023-04-05T22:50:31.407Z,100971.06
2023-04-05T22:52:59.143Z,100968.85
2023-04-05T22:55:27.017Z,100969.54
2023-04-05T22:57:54.805Z,100964.83
2023-04-05T23:00:22.529Z,100967.88
2023-04-05T23:02:50.444Z,100968.63
2023-04-05T23:05:18.356Z,100964.13
2023-04-05T23:07:46.241Z,100957.89
2023-04-05T23:10:14.026Z,100954.01
2023-04-05T23:12:42.845Z,100957.77
2023-04-05T23:15:11.618Z,100955.80
2023-04-05T23:17:39.388Z,100950.91
2023-04-05T23:20:08.277Z,100949.66
2023-04-05T23:22:36.264Z,100953.29
2023-04-05T23:25:06.003Z,100951.70
2023-04-05T23:27:33.944Z,100947.11
2023-04-05T23:30:01.724Z,100944.17
2023-04-05T23:32:29.927Z,100944.55
2023-04-05T23:34:57.768Z,100946.48
2023-04-05T23:37:25.752Z,100945.89
2023-04-05T23:39:53.587Z,100942.80
2023-04-05T23:42:21.556Z,100941.45
2023-04-05T23:44:49.359Z,100942.45
2023-04-05T23:47:17.112Z,100938.27
2023-04-05T23:49:45.040Z,100940.26
2023-04-05T23:52:12.934Z,100941.35
2023-04-05T23:54:41.137Z,100944.60
2023-04-05T23:57:08.986Z,100944.90
2023-04-05T23:59:36.842Z,100940.05
